Friendship, Mississippi
Current Conditions -  °F | °C
As of 1:55 PM on Friday 24 Oct 2014 (Local Time) from K1R7 Reporting Station
Clear Clear  
Wind Chill: 72°   Ceiling: Unl
Heat Index: 72°   Visibility: 10mi
Dew Point: 45°   Wind: 6mph
Humidity: 38%   Direction: 40°NE
Pressure: 30.1"   Gusts: NA
Location:  31.5898°N, 90.4722°W
Report Text: K1R7 241855Z AUTO 04005KT 10SM CLR 22/07 A3010 RMK AO2
Loading
Personal Weather Stations






























Interactive Weather Map
Tropical Storm Tracking
New forecast layout! Learn more

10-Day Weather Forecast

Advertisements
Track Severe Weather on mobile